Terminal Aerodrome Forecast
Issued by NWS

Home | Current Version | Previous Version | Text Only | Print | Product List | Glossary Off
Versions: 1 2 3 4 5 6 7 8 9 10 11 12 13 14 15 16 17 18 19 20 21 22 23 24 25 26 27 28 29 30 31

000
FTUS43 KICT 212320
TAFRSL
TAF
KRSL 212320Z 2200/2224 09008KT P6SM FEW040 BKN250
     FM220900 14006KT P6SM SCT025 BKN050
      TEMPO 2210/2214 5SM -RA OVC025
     FM221400 11008KT 4SM -RA SCT007 BKN015
     FM222100 14016KT P6SM SCT025 BKN050=

USA.gov is the U.S. government's official web portal to all federal, state and local government web resources and services.